Hobart, New York
Current Conditions -  °F | °C
As of 10:55 PM on Tuesday 25 Nov 2014 (Local Time) from KNY0 Reporting Station
Scattered Clouds Scattered Clouds  
Wind Chill: 27°   Ceiling: Unl
Heat Index: 34°   Visibility: 10mi
Dew Point: 27°   Wind: 8mph
Humidity: 77%   Direction: 270°W
Pressure: 30.13"   Gusts: NA
Location:  42.37°N, 74.67°W
Report Text: KNY0 260355Z AUTO 27007KT 10SM SCT026 01/M03 A3013 RMK AO2 T00101026
Loading
Personal Weather Stations






























Interactive Weather Map New forecast layout! Learn more

10-Day Weather Forecast

Advertisements
Track Severe Weather on mobile